createdAt,value
2019-02-22T00:03:32.843Z,9.80
2019-02-22T00:07:37.418Z,9.80
2019-02-22T00:11:41.930Z,9.80
2019-02-22T00:15:46.532Z,9.80
2019-02-22T00:19:51.080Z,9.80
2019-02-22T00:23:55.634Z,9.80
2019-02-22T00:28:00.303Z,9.80
2019-02-22T00:32:04.843Z,9.80
2019-02-22T00:36:09.464Z,9.80
2019-02-22T00:40:14.038Z,9.80
2019-02-22T00:44:18.599Z,9.80
2019-02-22T00:48:23.197Z,9.70
2019-02-22T00:52:28.695Z,9.80
2019-02-22T00:56:33.239Z,9.80
2019-02-22T01:00:37.782Z,9.80
2019-02-22T01:04:42.327Z,9.80
2019-02-22T01:08:46.871Z,9.80
2019-02-22T01:12:51.400Z,9.70
2019-02-22T01:16:57.345Z,9.70
2019-02-22T01:21:02.004Z,9.70
2019-02-22T01:25:06.547Z,9.70
2019-02-22T01:29:11.087Z,9.70
2019-02-22T01:33:15.658Z,9.70
2019-02-22T01:37:20.203Z,9.70
2019-02-22T01:41:24.746Z,9.70
2019-02-22T01:45:29.255Z,9.70
2019-02-22T01:49:33.803Z,9.70
2019-02-22T01:53:38.428Z,9.70
2019-02-22T01:57:42.967Z,9.70
2019-02-22T02:01:47.524Z,9.70
2019-02-22T02:05:52.086Z,9.70
2019-02-22T02:09:56.651Z,9.70
2019-02-22T02:14:01.215Z,9.70
2019-02-22T02:18:05.764Z,9.70
2019-02-22T02:22:10.337Z,9.70
2019-02-22T02:26:14.848Z,9.70
2019-02-22T02:30:19.388Z,9.70
2019-02-22T02:34:23.929Z,9.70
2019-02-22T02:38:28.480Z,9.70
2019-02-22T02:42:33.064Z,9.70
2019-02-22T02:46:37.563Z,9.70
2019-02-22T02:50:42.090Z,9.70
2019-02-22T02:54:46.668Z,9.70
2019-02-22T02:58:51.203Z,9.60
2019-02-22T03:02:55.774Z,9.70
2019-02-22T03:07:14.104Z,9.70
2019-02-22T03:11:20.954Z,9.60
2019-02-22T03:15:24.864Z,9.60
2019-02-22T03:19:29.390Z,9.60
2019-02-22T03:23:33.956Z,9.60
2019-02-22T03:27:38.512Z,9.60
2019-02-22T03:31:43.057Z,9.60
2019-02-22T03:35:47.588Z,9.50
2019-02-22T03:39:52.109Z,9.60
2019-02-22T03:43:56.630Z,9.50
2019-02-22T03:48:01.195Z,9.60
2019-02-22T03:52:43.041Z,9.60
2019-02-22T03:56:47.576Z,9.50
2019-02-22T04:00:52.118Z,9.50
2019-02-22T04:04:56.656Z,9.50
2019-02-22T04:09:01.184Z,9.50
2019-02-22T04:13:05.739Z,9.50
2019-02-22T04:17:11.512Z,9.50
2019-02-22T04:21:16.169Z,9.50
2019-02-22T04:25:20.659Z,9.50
2019-02-22T04:29:25.196Z,9.50
2019-02-22T04:33:29.724Z,9.50
2019-02-22T04:37:34.295Z,9.50
2019-02-22T04:41:38.833Z,9.50
2019-02-22T04:45:43.352Z,9.50
2019-02-22T04:49:47.895Z,9.50
2019-02-22T04:53:52.528Z,9.50
2019-02-22T04:57:57.080Z,9.50
2019-02-22T05:02:01.627Z,9.50
2019-02-22T05:06:06.175Z,9.50
2019-02-22T05:10:10.731Z,9.50
2019-02-22T05:14:15.275Z,9.50
2019-02-22T05:18:19.809Z,9.50
2019-02-22T05:22:24.366Z,9.50
2019-02-22T05:26:28.852Z,9.50
2019-02-22T05:30:36.324Z,9.50
2019-02-22T05:34:39.571Z,9.50
2019-02-22T05:38:44.111Z,9.50
2019-02-22T05:42:48.672Z,9.50
2019-02-22T05:47:00.479Z,9.50
2019-02-22T05:50:59.367Z,9.50
2019-02-22T05:55:03.926Z,9.50
2019-02-22T05:59:08.459Z,9.50
2019-02-22T06:03:13.009Z,9.50
2019-02-22T06:07:17.532Z,9.50
2019-02-22T06:11:22.154Z,9.50
2019-02-22T06:15:26.692Z,9.50
2019-02-22T06:19:31.223Z,9.40
2019-02-22T06:23:35.766Z,9.50
2019-02-22T06:27:40.286Z,9.50
2019-02-22T06:31:44.911Z,9.50
2019-02-22T06:35:53.589Z,9.40
2019-02-22T06:39:58.190Z,9.40
2019-02-22T06:44:02.915Z,9.40
2019-02-22T06:48:07.482Z,9.40
2019-02-22T06:52:12.215Z,9.40
2019-02-22T06:56:16.863Z,9.40
2019-02-22T07:00:21.418Z,9.40
2019-02-22T07:04:27.099Z,9.40
2019-02-22T07:08:31.674Z,9.40
2019-02-22T07:12:56.837Z,9.50
2019-02-22T07:16:58.484Z,9.40
2019-02-22T07:21:03.060Z,9.40
2019-02-22T07:25:08.998Z,9.40
2019-02-22T07:29:13.549Z,9.40
2019-02-22T07:33:18.079Z,9.40
2019-02-22T07:37:22.629Z,9.40
2019-02-22T07:41:27.183Z,9.30
2019-02-22T07:45:31.786Z,9.40
2019-02-22T07:49:36.361Z,9.30
2019-02-22T07:53:40.991Z,9.30
2019-02-22T07:57:45.592Z,9.30
2019-02-22T08:01:50.217Z,9.30
2019-02-22T08:05:54.868Z,9.30
2019-02-22T08:09:59.481Z,9.20
2019-02-22T08:14:04.092Z,9.20
2019-02-22T08:18:08.707Z,9.20
2019-02-22T08:22:13.519Z,9.20
2019-02-22T08:26:18.104Z,9.20
2019-02-22T08:30:22.735Z,9.20
2019-02-22T08:34:27.287Z,9.20
2019-02-22T08:38:31.835Z,9.30
2019-02-22T08:42:36.365Z,9.30
2019-02-22T08:46:40.905Z,9.30
2019-02-22T08:50:46.448Z,9.30
2019-02-22T08:54:51.023Z,9.30
2019-02-22T08:58:55.580Z,9.40
2019-02-22T09:03:00.139Z,9.40
2019-02-22T09:07:04.719Z,9.50
2019-02-22T09:11:09.263Z,9.50
2019-02-22T09:15:13.813Z,9.50
2019-02-22T09:19:18.333Z,9.60
2019-02-22T09:23:22.877Z,9.60
2019-02-22T09:27:27.405Z,9.60
2019-02-22T09:31:31.990Z,9.70
2019-02-22T09:35:36.606Z,9.70
2019-02-22T09:39:41.433Z,9.70
2019-02-22T09:43:54.696Z,9.80
2019-02-22T09:47:52.233Z,9.80
2019-02-22T09:51:56.776Z,9.90
2019-02-22T09:56:01.311Z,9.90
2019-02-22T10:00:07.852Z,10.00
2019-02-22T10:04:12.423Z,10.00
2019-02-22T10:08:16.967Z,10.10
2019-02-22T10:12:21.538Z,10.00
2019-02-22T10:16:27.621Z,10.10
2019-02-22T10:20:32.291Z,10.00
2019-02-22T10:24:38.380Z,10.00
2019-02-22T10:28:42.940Z,10.00
2019-02-22T10:32:47.786Z,10.00
2019-02-22T10:36:52.365Z,10.00
2019-02-22T10:40:56.933Z,9.90
2019-02-22T10:45:02.061Z,9.90
2019-02-22T10:49:06.660Z,9.90
2019-02-22T10:53:12.576Z,9.90
2019-02-22T10:57:17.148Z,9.80
2019-02-22T11:01:21.745Z,9.80
2019-02-22T11:05:26.342Z,9.80
2019-02-22T11:09:30.896Z,9.70
2019-02-22T11:13:35.477Z,9.70
2019-02-22T11:17:40.131Z,9.60
2019-02-22T11:21:44.714Z,9.60
2019-02-22T11:25:49.279Z,9.60
2019-02-22T11:29:53.811Z,9.70
2019-02-22T11:33:58.395Z,9.70
2019-02-22T11:38:02.962Z,9.70
2019-02-22T11:42:07.515Z,9.70
2019-02-22T11:46:12.063Z,9.70
2019-02-22T11:50:16.577Z,9.80
2019-02-22T11:54:21.147Z,9.80
2019-02-22T11:58:25.733Z,9.80
2019-02-22T12:02:30.300Z,9.90
2019-02-22T12:06:34.939Z,9.90
2019-02-22T12:10:39.451Z,9.90
2019-02-22T12:14:51.088Z,9.90
2019-02-22T12:18:50.256Z,9.90
2019-02-22T12:22:54.866Z,9.80
2019-02-22T12:26:59.423Z,9.90
2019-02-22T12:31:04.164Z,9.90
2019-02-22T12:35:08.893Z,9.80
2019-02-22T12:39:13.484Z,9.80
2019-02-22T12:43:18.052Z,9.80
2019-02-22T12:47:24.474Z,9.80
2019-02-22T12:51:29.003Z,9.80
2019-02-22T12:55:33.582Z,9.70
2019-02-22T12:59:38.131Z,9.70
2019-02-22T13:03:42.753Z,9.70
2019-02-22T13:07:47.339Z,9.70
2019-02-22T13:11:51.854Z,9.70
2019-02-22T13:15:56.415Z,9.70
2019-02-22T13:20:00.976Z,9.60
2019-02-22T13:24:05.559Z,9.50
2019-02-22T13:28:10.114Z,9.40
2019-02-22T13:32:14.651Z,9.30
2019-02-22T13:36:19.674Z,9.10
2019-02-22T13:40:24.337Z,9.10
2019-02-22T13:44:28.923Z,9.00
2019-02-22T13:48:33.485Z,9.00
2019-02-22T13:52:38.007Z,8.90
2019-02-22T13:56:42.584Z,8.90
2019-02-22T14:00:47.134Z,8.90
2019-02-22T14:04:51.683Z,8.80
2019-02-22T14:08:56.242Z,8.80
2019-02-22T14:13:00.770Z,9.00
2019-02-22T14:17:05.348Z,8.80
2019-02-22T14:21:09.920Z,8.70
2019-02-22T14:25:14.495Z,8.70
2019-02-22T14:29:19.037Z,8.60
2019-02-22T14:33:23.558Z,8.50
2019-02-22T14:37:28.136Z,8.50
2019-02-22T14:41:32.742Z,8.50
2019-02-22T14:45:48.522Z,8.40
2019-02-22T14:49:43.583Z,8.40
2019-02-22T14:53:48.149Z,8.30
2019-02-22T14:57:52.748Z,8.30
2019-02-22T15:01:57.325Z,8.20
2019-02-22T15:06:01.918Z,8.10
2019-02-22T15:10:07.091Z,8.10
2019-02-22T15:14:11.604Z,8.00
2019-02-22T15:18:16.187Z,8.00
2019-02-22T15:22:22.213Z,7.90
2019-02-22T15:26:26.782Z,7.80
2019-02-22T15:30:31.386Z,7.80
2019-02-22T15:34:35.901Z,7.70
2019-02-22T15:38:40.484Z,7.50
2019-02-22T15:42:45.114Z,7.40
2019-02-22T15:46:49.682Z,7.40
2019-02-22T15:50:54.276Z,7.30
2019-02-22T15:54:58.826Z,7.30
2019-02-22T15:59:03.433Z,7.10
2019-02-22T16:03:08.020Z,7.00
2019-02-22T16:07:12.685Z,7.30
2019-02-22T16:11:17.232Z,7.40
2019-02-22T16:15:21.845Z,7.60
2019-02-22T16:19:26.484Z,7.60
2019-02-22T16:23:31.193Z,7.50
2019-02-22T16:27:35.800Z,7.60
2019-02-22T16:31:40.343Z,7.50
2019-02-22T16:35:44.933Z,7.50
2019-02-22T16:39:52.310Z,7.40
2019-02-22T16:43:55.858Z,7.30
2019-02-22T16:48:00.475Z,7.10
2019-02-22T16:52:05.008Z,7.10
2019-02-22T16:56:10.090Z,7.00
2019-02-22T17:00:15.307Z,7.00
2019-02-22T17:04:19.848Z,6.90
2019-02-22T17:08:24.456Z,6.90
2019-02-22T17:12:28.983Z,6.80
2019-02-22T17:16:33.562Z,6.70
2019-02-22T17:20:38.149Z,6.60
2019-02-22T17:24:42.699Z,6.60
2019-02-22T17:28:46.192Z,6.40
2019-02-22T17:32:49.623Z,6.20
2019-02-22T17:36:53.103Z,5.70
2019-02-22T17:40:57.653Z,5.60
2019-02-22T17:45:02.227Z,5.60
2019-02-22T17:49:06.744Z,5.40
2019-02-22T17:53:11.324Z,5.40
2019-02-22T17:57:15.862Z,5.40
2019-02-22T18:01:20.403Z,5.30
2019-02-22T18:05:24.968Z,5.30
2019-02-22T18:09:29.524Z,5.20
2019-02-22T18:13:34.087Z,5.20
2019-02-22T18:17:38.697Z,5.60
2019-02-22T18:21:43.271Z,5.90
2019-02-22T18:25:47.838Z,6.10
2019-02-22T18:29:52.361Z,6.30
2019-02-22T18:33:56.962Z,6.30
2019-02-22T18:38:01.528Z,6.30
2019-02-22T18:42:06.072Z,6.40
2019-02-22T18:46:10.646Z,6.50
2019-02-22T18:50:15.155Z,6.50
2019-02-22T18:54:19.714Z,6.60
2019-02-22T18:58:24.306Z,6.60
2019-02-22T19:02:28.871Z,6.50
2019-02-22T19:06:34.029Z,6.50
2019-02-22T19:10:38.547Z,6.40
2019-02-22T19:14:43.092Z,6.50
2019-02-22T19:18:47.651Z,6.50
2019-02-22T19:22:52.196Z,6.50
2019-02-22T19:26:57.143Z,6.30
2019-02-22T19:31:01.648Z,6.10
2019-02-22T19:35:06.379Z,6.20
2019-02-22T19:39:10.929Z,6.20
2019-02-22T19:43:15.544Z,6.10
2019-02-22T19:47:20.076Z,6.10
2019-02-22T19:51:24.627Z,6.10
2019-02-22T19:55:29.176Z,6.10
2019-02-22T19:59:33.716Z,6.00
2019-02-22T20:03:38.274Z,6.00
2019-02-22T20:07:42.886Z,6.00
2019-02-22T20:11:48.204Z,5.90
2019-02-22T20:15:53.292Z,5.90
2019-02-22T20:19:58.223Z,5.90
2019-02-22T20:24:02.785Z,6.00
2019-02-22T20:28:07.279Z,6.00
2019-02-22T20:32:11.811Z,6.00
2019-02-22T20:36:16.383Z,6.00
2019-02-22T20:40:21.029Z,6.00
2019-02-22T20:44:25.602Z,5.90
2019-02-22T20:48:30.127Z,5.90
2019-02-22T20:52:34.672Z,5.80
2019-02-22T20:56:39.212Z,5.70
2019-02-22T21:00:43.775Z,5.70
2019-02-22T21:04:48.279Z,5.70
2019-02-22T21:08:52.872Z,5.60
2019-02-22T21:12:57.604Z,5.50
2019-02-22T21:17:02.135Z,5.50
2019-02-22T21:21:06.704Z,5.40
2019-02-22T21:25:11.396Z,5.40
2019-02-22T21:29:15.943Z,5.30
2019-02-22T21:33:20.561Z,5.20
2019-02-22T21:37:25.148Z,5.20
2019-02-22T21:41:29.684Z,5.10
2019-02-22T21:45:34.239Z,5.10
2019-02-22T21:49:38.755Z,5.00
2019-02-22T21:53:43.316Z,5.00
2019-02-22T21:57:47.847Z,4.90
2019-02-22T22:01:52.410Z,4.90
2019-02-22T22:05:56.983Z,4.80
2019-02-22T22:10:01.551Z,4.90
2019-02-22T22:14:06.113Z,4.90
2019-02-22T22:18:10.659Z,4.90
2019-02-22T22:22:15.295Z,5.00
2019-02-22T22:26:19.860Z,5.00
2019-02-22T22:30:24.379Z,5.00
2019-02-22T22:34:28.950Z,5.10
2019-02-22T22:38:33.510Z,5.20
2019-02-22T22:42:38.191Z,5.20
2019-02-22T22:46:42.691Z,5.20
2019-02-22T22:50:47.231Z,5.30
2019-02-22T22:54:51.800Z,5.30
2019-02-22T22:58:56.344Z,5.40
2019-02-22T23:03:00.891Z,5.40
2019-02-22T23:07:05.452Z,5.40
2019-02-22T23:11:10.004Z,5.50
2019-02-22T23:15:14.516Z,5.60
2019-02-22T23:19:19.067Z,5.60
2019-02-22T23:23:23.713Z,5.60
2019-02-22T23:27:28.239Z,5.70
2019-02-22T23:31:32.791Z,5.70
2019-02-22T23:35:37.354Z,5.70
2019-02-22T23:39:41.890Z,5.70
2019-02-22T23:43:46.383Z,5.80
2019-02-22T23:47:50.980Z,5.80
2019-02-22T23:51:55.626Z,5.70
2019-02-22T23:56:00.167Z,5.80
